createdAt,value
2023-03-04T00:00:29.141Z,33.60
2023-03-04T00:03:18.458Z,25.60
2023-03-04T00:05:48.034Z,25.50
2023-03-04T00:08:18.160Z,27.60
2023-03-04T00:10:49.081Z,25.10
2023-03-04T00:13:21.546Z,26.80
2023-03-04T00:15:52.244Z,25.00
2023-03-04T00:18:22.177Z,26.30
2023-03-04T00:20:51.876Z,27.80
2023-03-04T00:23:20.938Z,30.80
2023-03-04T00:25:50.158Z,20.00
2023-03-04T00:28:20.186Z,26.00
2023-03-04T00:30:50.711Z,24.50
2023-03-04T00:33:20.870Z,22.90
2023-03-04T00:35:50.277Z,26.50
2023-03-04T00:38:20.495Z,21.20
2023-03-04T00:40:51.574Z,23.30
2023-03-04T00:43:22.442Z,23.20
2023-03-04T00:45:52.328Z,23.30
2023-03-04T00:48:21.951Z,24.70
2023-03-04T00:50:54.180Z,24.40
2023-03-04T00:53:29.713Z,23.40
2023-03-04T00:55:58.771Z,23.50
2023-03-04T00:58:27.752Z,25.00
2023-03-04T01:00:57.156Z,23.00
2023-03-04T01:03:32.393Z,20.70
2023-03-04T01:06:02.401Z,20.80
2023-03-04T01:08:31.558Z,22.40
2023-03-04T01:11:01.435Z,24.20
2023-03-04T01:13:31.400Z,22.10
2023-03-04T01:16:01.913Z,29.10
2023-03-04T01:18:33.165Z,22.60
2023-03-04T01:21:02.682Z,25.20
2023-03-04T01:23:32.820Z,20.40
2023-03-04T01:26:05.142Z,17.60
2023-03-04T01:28:36.478Z,20.30
2023-03-04T01:31:08.592Z,20.70
2023-03-04T01:33:38.429Z,17.00
2023-03-04T01:36:08.588Z,22.60
2023-03-04T01:38:37.602Z,23.40
2023-03-04T01:41:09.109Z,21.10
2023-03-04T01:43:39.278Z,23.60
2023-03-04T01:46:15.439Z,25.60
2023-03-04T01:48:45.507Z,25.00
2023-03-04T01:51:19.275Z,23.00
2023-03-04T01:53:53.743Z,25.80
2023-03-04T01:56:28.815Z,19.60
2023-03-04T01:59:15.591Z,21.80
2023-03-04T02:01:56.103Z,23.90
2023-03-04T02:04:30.352Z,24.20
2023-03-04T02:07:02.238Z,22.90
2023-03-04T02:09:33.569Z,19.00
2023-03-04T02:12:03.531Z,17.40
2023-03-04T02:14:35.040Z,21.20
2023-03-04T02:17:12.759Z,22.70
2023-03-04T02:20:00.310Z,19.80
2023-03-04T02:22:30.492Z,18.70
2023-03-04T02:25:11.399Z,23.00
2023-03-04T02:27:41.712Z,17.50
2023-03-04T02:30:13.825Z,24.70
2023-03-04T02:32:43.584Z,19.50
2023-03-04T02:35:20.757Z,20.70
2023-03-04T02:37:49.994Z,20.30
2023-03-04T02:40:30.035Z,19.60
2023-03-04T02:43:01.207Z,20.10
2023-03-04T02:45:40.384Z,20.40
2023-03-04T02:48:12.448Z,21.20
2023-03-04T02:50:47.806Z,24.00
2023-03-04T02:53:19.077Z,21.20
2023-03-04T02:55:49.429Z,23.00
2023-03-04T02:58:19.490Z,24.90
2023-03-04T03:00:50.733Z,21.30
2023-03-04T03:03:19.952Z,22.50
2023-03-04T03:05:50.192Z,22.50
2023-03-04T03:08:19.761Z,22.50
2023-03-04T03:10:52.477Z,25.90
2023-03-04T03:13:23.148Z,21.40
2023-03-04T03:15:57.448Z,20.70
2023-03-04T03:18:27.404Z,24.50
2023-03-04T03:20:56.486Z,18.80
2023-03-04T03:23:26.307Z,19.10
2023-03-04T03:26:46.535Z,21.20
2023-03-04T03:29:16.433Z,19.90
2023-03-04T03:31:45.501Z,21.10
2023-03-04T03:34:15.081Z,22.70
2023-03-04T03:36:45.591Z,23.80
2023-03-04T03:39:16.167Z,24.30
2023-03-04T03:41:46.607Z,19.70
2023-03-04T03:44:16.818Z,22.70
2023-03-04T03:46:47.874Z,21.10
2023-03-04T03:49:17.627Z,21.70
2023-03-04T03:51:48.331Z,22.10
2023-03-04T03:54:20.264Z,23.50
2023-03-04T03:56:50.130Z,21.30
2023-03-04T03:59:19.505Z,20.90
2023-03-04T04:01:49.925Z,21.30
2023-03-04T04:04:22.005Z,20.10
2023-03-04T04:06:51.395Z,20.10
2023-03-04T04:09:21.772Z,19.30
2023-03-04T04:11:53.114Z,20.90
2023-03-04T04:14:22.829Z,22.10
2023-03-04T04:16:52.787Z,20.60
2023-03-04T04:19:22.682Z,21.80
2023-03-04T04:21:52.900Z,20.20
2023-03-04T04:24:23.667Z,19.00
2023-03-04T04:26:53.515Z,18.60
2023-03-04T04:29:23.632Z,20.80
2023-03-04T04:31:56.112Z,22.50
2023-03-04T04:34:26.602Z,19.40
2023-03-04T04:36:57.303Z,18.40
2023-03-04T04:39:27.248Z,24.20
2023-03-04T04:41:57.325Z,29.10
2023-03-04T04:44:27.051Z,23.90
2023-03-04T04:46:56.109Z,22.20
2023-03-04T04:49:25.218Z,27.30
2023-03-04T04:51:54.378Z,25.10
2023-03-04T04:54:25.228Z,23.20
2023-03-04T04:56:55.557Z,24.20
2023-03-04T04:59:25.312Z,27.20
2023-03-04T05:01:54.429Z,26.90
2023-03-04T05:04:24.030Z,25.80
2023-03-04T05:06:53.197Z,25.10
2023-03-04T05:09:23.776Z,21.50
2023-03-04T05:11:59.846Z,22.90
2023-03-04T05:14:32.290Z,21.50
2023-03-04T05:17:01.646Z,22.40
2023-03-04T05:19:32.183Z,19.40
2023-03-04T05:22:01.707Z,24.50
2023-03-04T05:24:53.949Z,23.60
2023-03-04T05:27:26.816Z,24.50
2023-03-04T05:30:00.453Z,19.90
2023-03-04T05:32:34.089Z,25.50
2023-03-04T05:37:50.044Z,20.60
2023-03-04T05:40:19.352Z,22.70
2023-03-04T05:42:48.746Z,30.80
2023-03-04T05:45:18.544Z,25.50
2023-03-04T05:47:48.931Z,25.40
2023-03-04T05:50:24.340Z,26.00
2023-03-04T05:52:57.826Z,19.40
2023-03-04T05:55:30.577Z,20.70
2023-03-04T05:58:03.357Z,22.50
2023-03-04T06:00:33.352Z,19.50
2023-03-04T06:03:03.159Z,22.10
2023-03-04T06:05:32.599Z,23.70
2023-03-04T06:08:02.977Z,23.80
2023-03-04T06:10:34.097Z,20.60
2023-03-04T06:13:09.451Z,22.40
2023-03-04T06:15:41.267Z,21.90
2023-03-04T06:18:11.038Z,24.90
2023-03-04T06:20:41.678Z,23.60
2023-03-04T06:23:13.000Z,23.90
2023-03-04T06:25:45.532Z,27.50
2023-03-04T06:28:14.888Z,28.50
2023-03-04T06:30:44.737Z,26.20
2023-03-04T06:33:15.301Z,31.30
2023-03-04T06:35:44.858Z,28.90
2023-03-04T06:38:18.660Z,31.20
2023-03-04T06:40:56.732Z,27.10
2023-03-04T06:43:40.033Z,22.50
2023-03-04T06:46:11.240Z,27.00
2023-03-04T06:48:42.260Z,26.40
2023-03-04T06:51:18.254Z,25.60
2023-03-04T06:53:50.995Z,29.30
2023-03-04T06:56:20.349Z,21.40
2023-03-04T06:58:50.628Z,21.70
2023-03-04T07:01:27.354Z,25.00
2023-03-04T07:03:58.020Z,17.90
2023-03-04T07:06:32.098Z,17.70
2023-03-04T07:09:10.259Z,17.60
2023-03-04T07:11:39.524Z,18.30
2023-03-04T07:14:09.690Z,22.10
2023-03-04T07:16:41.318Z,19.30
2023-03-04T07:19:11.465Z,18.80
2023-03-04T07:21:59.558Z,18.40
2023-03-04T07:24:31.442Z,16.90
2023-03-04T07:27:01.567Z,16.70
2023-03-04T07:29:30.945Z,20.30
2023-03-04T07:32:10.374Z,21.00
2023-03-04T07:34:43.518Z,19.50
2023-03-04T07:37:14.289Z,20.00
2023-03-04T07:39:44.610Z,19.00
2023-03-04T07:42:21.331Z,17.30
2023-03-04T07:45:01.684Z,19.00
2023-03-04T07:47:31.661Z,19.40
2023-03-04T07:50:00.747Z,22.50
2023-03-04T07:52:30.328Z,19.90
2023-03-04T07:55:00.236Z,18.30
2023-03-04T07:57:29.857Z,14.70
2023-03-04T08:00:01.569Z,17.20
2023-03-04T08:02:31.880Z,20.70
2023-03-04T08:05:01.196Z,18.60
2023-03-04T08:07:58.197Z,17.60
2023-03-04T08:10:30.279Z,17.80
2023-03-04T08:13:02.646Z,13.40
2023-03-04T08:15:35.624Z,17.10
2023-03-04T08:18:05.587Z,15.80
2023-03-04T08:20:35.299Z,18.00
2023-03-04T08:23:41.314Z,15.80
2023-03-04T08:26:23.135Z,14.30
2023-03-04T08:28:58.968Z,16.20
2023-03-04T08:31:31.346Z,14.00
2023-03-04T08:34:04.915Z,15.20
2023-03-04T08:36:34.705Z,14.70
2023-03-04T08:39:05.860Z,15.80
2023-03-04T08:41:35.976Z,15.80
2023-03-04T08:44:10.817Z,12.00
2023-03-04T08:46:42.450Z,15.00
2023-03-04T08:49:14.773Z,13.90
2023-03-04T08:51:45.793Z,14.00
2023-03-04T08:54:14.986Z,15.50
2023-03-04T08:56:44.566Z,13.00
2023-03-04T08:59:13.886Z,13.50
2023-03-04T09:01:44.250Z,16.00
2023-03-04T09:04:15.280Z,16.80
2023-03-04T09:06:48.134Z,31.70
2023-03-04T09:09:17.616Z,12.90
2023-03-04T09:11:46.821Z,17.70
2023-03-04T09:14:16.259Z,14.60
2023-03-04T09:16:50.091Z,10.50
2023-03-04T09:21:48.567Z,12.10
2023-03-04T09:24:17.753Z,12.70
2023-03-04T09:26:52.566Z,11.30
2023-03-04T09:29:24.458Z,14.30
2023-03-04T09:32:00.077Z,20.30
2023-03-04T09:34:33.192Z,15.20
2023-03-04T09:37:02.671Z,12.70
2023-03-04T09:39:32.834Z,16.50
2023-03-04T09:42:06.578Z,13.60
2023-03-04T09:44:52.005Z,18.30
2023-03-04T09:47:24.537Z,14.30
2023-03-04T09:50:08.127Z,14.00
2023-03-04T09:53:05.967Z,13.00
2023-03-04T09:55:48.687Z,14.20
2023-03-04T09:58:48.271Z,18.50
2023-03-04T10:01:27.181Z,13.30
2023-03-04T10:04:20.772Z,14.70
2023-03-04T10:06:57.425Z,14.70
2023-03-04T10:09:54.393Z,14.10
2023-03-04T10:12:30.851Z,16.30
2023-03-04T10:15:08.275Z,12.90
2023-03-04T10:17:43.285Z,14.30
2023-03-04T10:20:19.667Z,13.80
2023-03-04T10:22:52.186Z,18.20
2023-03-04T10:25:32.835Z,13.50
2023-03-04T10:28:11.272Z,17.80
2023-03-04T10:31:00.763Z,13.40
2023-03-04T10:33:36.875Z,15.70
2023-03-04T10:36:34.554Z,12.50
2023-03-04T10:39:14.208Z,14.30
2023-03-04T10:41:46.812Z,10.80
2023-03-04T10:46:49.961Z,14.70
2023-03-04T10:49:20.138Z,15.90
2023-03-04T10:52:28.369Z,13.00
2023-03-04T10:55:05.294Z,13.80
2023-03-04T10:57:42.092Z,14.90
2023-03-04T11:00:38.975Z,15.30
2023-03-04T11:03:30.213Z,13.90
2023-03-04T11:06:11.107Z,13.20
2023-03-04T11:08:43.427Z,12.00
2023-03-04T11:11:48.041Z,12.70
2023-03-04T11:14:32.306Z,15.70
2023-03-04T11:17:17.149Z,12.30
2023-03-04T11:20:33.933Z,11.90
2023-03-04T11:23:13.010Z,12.80
2023-03-04T11:25:52.907Z,12.40
2023-03-04T11:28:31.160Z,17.10
2023-03-04T11:31:16.321Z,13.00
2023-03-04T11:33:57.943Z,12.00
2023-03-04T11:36:57.755Z,11.40
2023-03-04T11:40:13.988Z,12.80
2023-03-04T11:43:05.397Z,12.30
2023-03-04T11:45:47.845Z,11.70
2023-03-04T11:48:41.366Z,15.20
2023-03-04T11:51:24.301Z,11.40
2023-03-04T11:54:09.779Z,10.70
2023-03-04T11:56:45.557Z,15.00
2023-03-04T11:59:44.327Z,11.90
2023-03-04T12:02:21.540Z,12.70
2023-03-04T12:05:02.292Z,10.80
2023-03-04T12:07:45.810Z,14.30
2023-03-04T12:10:49.965Z,14.50
2023-03-04T12:13:32.303Z,13.10
2023-03-04T12:16:34.277Z,13.20
2023-03-04T12:19:29.755Z,12.30
2023-03-04T12:22:39.379Z,8.90
2023-03-04T12:25:30.165Z,13.90
2023-03-04T12:28:22.069Z,11.80
2023-03-04T12:31:23.991Z,12.60
2023-03-04T12:34:16.096Z,11.40
2023-03-04T12:36:57.377Z,11.50
2023-03-04T12:39:43.062Z,14.10
2023-03-04T12:42:43.289Z,11.30
2023-03-04T12:45:32.847Z,12.00
2023-03-04T12:48:07.586Z,14.20
2023-03-04T12:51:17.888Z,12.60
2023-03-04T12:53:59.532Z,11.60
2023-03-04T12:56:44.095Z,10.40
2023-03-04T13:02:34.041Z,10.30
2023-03-04T13:05:42.358Z,14.10
2023-03-04T13:08:19.190Z,14.70
2023-03-04T13:10:51.585Z,12.00
2023-03-04T13:13:38.200Z,11.80
2023-03-04T13:16:39.069Z,14.40
2023-03-04T13:19:45.544Z,12.40
2023-03-04T13:22:37.830Z,10.10
2023-03-04T13:25:58.748Z,11.90
2023-03-04T13:28:42.484Z,10.20
2023-03-04T13:31:26.177Z,8.50
2023-03-04T13:34:02.696Z,9.00
2023-03-04T13:37:06.220Z,7.10
2023-03-04T13:39:39.288Z,8.90
2023-03-04T13:42:48.081Z,8.80
2023-03-04T13:45:39.678Z,11.40
2023-03-04T13:48:31.458Z,18.70
2023-03-04T13:51:17.595Z,10.60
2023-03-04T13:54:32.658Z,8.70
2023-03-04T13:57:02.929Z,13.90
2023-03-04T13:59:59.259Z,9.30
2023-03-04T14:02:36.415Z,11.80
2023-03-04T14:05:12.829Z,12.30
2023-03-04T14:07:42.235Z,12.60
2023-03-04T14:10:15.871Z,13.10
2023-03-04T14:13:01.183Z,10.70
2023-03-04T14:15:34.408Z,12.20
2023-03-04T14:18:06.515Z,13.00
2023-03-04T14:20:59.823Z,14.00
2023-03-04T14:23:39.350Z,13.80
2023-03-04T14:26:15.561Z,14.90
2023-03-04T14:28:55.931Z,11.90
2023-03-04T14:31:32.506Z,10.60
2023-03-04T14:34:04.116Z,12.30
2023-03-04T14:36:36.947Z,8.70
2023-03-04T14:39:08.994Z,18.50
2023-03-04T14:44:41.277Z,13.10
2023-03-04T14:47:33.506Z,9.10
2023-03-04T14:50:27.635Z,11.00
2023-03-04T14:53:22.549Z,14.60
2023-03-04T14:56:05.271Z,10.80
2023-03-04T14:58:38.092Z,12.00
2023-03-04T15:01:23.295Z,12.50
2023-03-04T15:04:05.249Z,13.60
2023-03-04T15:06:37.912Z,12.00
2023-03-04T15:09:21.550Z,12.70
2023-03-04T15:12:04.232Z,18.50
2023-03-04T15:14:43.613Z,17.60
2023-03-04T15:17:41.566Z,13.10
2023-03-04T15:20:10.631Z,10.90
2023-03-04T15:22:49.569Z,18.50
2023-03-04T15:25:20.631Z,22.60
2023-03-04T15:27:51.887Z,11.30
2023-03-04T15:30:33.536Z,14.00
2023-03-04T15:33:11.015Z,13.90
2023-03-04T15:35:59.141Z,13.40
2023-03-04T15:38:30.963Z,23.00
2023-03-04T15:43:36.806Z,38.60
2023-03-04T15:46:17.062Z,16.60
2023-03-04T15:48:50.959Z,13.40
2023-03-04T15:51:25.055Z,11.00
2023-03-04T15:54:03.803Z,14.80
2023-03-04T15:56:35.421Z,16.70
2023-03-04T15:59:15.216Z,34.10
2023-03-04T16:01:46.916Z,46.80
2023-03-04T16:04:45.964Z,26.00
2023-03-04T16:07:21.706Z,14.20
2023-03-04T16:10:15.974Z,15.60
2023-03-04T16:12:47.122Z,16.50
2023-03-04T16:15:20.370Z,18.20
2023-03-04T16:17:50.182Z,13.70
2023-03-04T16:20:26.599Z,11.40
2023-03-04T16:23:01.182Z,12.30
2023-03-04T16:29:30.691Z,11.70
2023-03-04T16:34:58.823Z,19.70
2023-03-04T16:39:59.026Z,13.70
2023-03-04T16:42:33.964Z,14.90
2023-03-04T16:45:03.445Z,22.30
2023-03-04T16:47:38.050Z,18.10
2023-03-04T16:50:07.366Z,24.10
2023-03-04T16:53:00.995Z,26.50
2023-03-04T16:55:32.361Z,22.60
2023-03-04T16:58:04.313Z,21.50
2023-03-04T17:00:38.999Z,23.90
2023-03-04T17:03:14.482Z,22.80
2023-03-04T17:05:46.206Z,24.70
2023-03-04T17:08:19.761Z,20.60
2023-03-04T17:10:53.416Z,17.70
2023-03-04T17:13:27.708Z,32.30
2023-03-04T17:16:07.974Z,20.50
2023-03-04T17:18:46.472Z,19.40
2023-03-04T17:21:20.364Z,17.40
2023-03-04T17:23:55.876Z,21.10
2023-03-04T17:26:34.196Z,21.50
2023-03-04T17:29:09.148Z,26.60
2023-03-04T17:31:38.789Z,21.70
2023-03-04T17:34:08.255Z,26.20
2023-03-04T17:36:38.421Z,18.80
2023-03-04T17:39:08.131Z,20.80
2023-03-04T17:41:37.886Z,21.40
2023-03-04T17:44:07.592Z,24.30
2023-03-04T17:46:37.276Z,26.50
2023-03-04T17:49:06.429Z,19.70
2023-03-04T17:51:38.775Z,25.60
2023-03-04T17:54:10.608Z,22.20
2023-03-04T17:56:41.027Z,23.90
2023-03-04T17:59:18.017Z,22.60
2023-03-04T18:01:52.884Z,19.70
2023-03-04T18:04:24.018Z,23.30
2023-03-04T18:06:56.695Z,25.50
2023-03-04T18:09:26.373Z,27.80
2023-03-04T18:12:25.336Z,39.30
2023-03-04T18:14:58.654Z,28.80
2023-03-04T18:17:28.638Z,26.20
2023-03-04T18:19:57.835Z,25.80
2023-03-04T18:22:33.399Z,24.00
2023-03-04T18:25:03.622Z,32.10
2023-03-04T18:27:34.006Z,26.90
2023-03-04T18:30:03.834Z,27.30
2023-03-04T18:32:49.484Z,25.50
2023-03-04T18:35:26.048Z,25.80
2023-03-04T18:38:03.223Z,21.40
2023-03-04T18:40:38.934Z,24.00
2023-03-04T18:43:09.133Z,27.00
2023-03-04T18:45:41.229Z,21.70
2023-03-04T18:48:11.125Z,20.60
2023-03-04T18:50:40.288Z,18.30
2023-03-04T18:53:15.928Z,22.10
2023-03-04T18:55:47.654Z,18.50
2023-03-04T18:58:17.287Z,18.80
2023-03-04T19:00:46.923Z,24.80
2023-03-04T19:03:17.938Z,25.30
2023-03-04T19:05:47.415Z,22.00
2023-03-04T19:08:18.242Z,24.20
2023-03-04T19:10:47.472Z,21.40
2023-03-04T19:13:18.817Z,22.20
2023-03-04T19:15:50.135Z,23.40
2023-03-04T19:18:19.908Z,18.40
2023-03-04T19:20:49.463Z,19.40
2023-03-04T19:23:27.820Z,20.90
2023-03-04T19:26:00.203Z,22.50
2023-03-04T19:28:30.566Z,21.40
2023-03-04T19:31:13.738Z,19.90
2023-03-04T19:33:46.341Z,25.20
2023-03-04T19:36:23.421Z,22.60
2023-03-04T19:38:56.217Z,21.80
2023-03-04T19:41:27.998Z,23.30
2023-03-04T19:43:58.285Z,33.00
2023-03-04T19:46:28.292Z,19.70
2023-03-04T19:48:57.805Z,21.10
2023-03-04T19:51:55.437Z,31.20
2023-03-04T19:54:24.754Z,23.20
2023-03-04T19:56:54.945Z,22.80
2023-03-04T19:59:30.205Z,25.70
2023-03-04T20:02:02.247Z,25.50
2023-03-04T20:04:32.513Z,21.40
2023-03-04T20:07:03.864Z,25.00
2023-03-04T20:09:34.482Z,23.20
2023-03-04T20:12:10.354Z,26.40
2023-03-04T20:14:40.734Z,28.20
2023-03-04T20:17:12.734Z,27.90
2023-03-04T20:19:42.315Z,24.00
2023-03-04T20:22:19.230Z,21.50
2023-03-04T20:24:51.030Z,21.40
2023-03-04T20:27:20.212Z,21.70
2023-03-04T20:29:50.240Z,24.30
2023-03-04T20:32:19.545Z,24.00
2023-03-04T20:34:54.875Z,26.90
2023-03-04T20:37:25.344Z,25.80
2023-03-04T20:39:57.289Z,23.90
2023-03-04T20:42:27.013Z,22.00
2023-03-04T20:44:56.724Z,22.80
2023-03-04T20:47:27.430Z,32.10
2023-03-04T20:49:57.983Z,28.30
2023-03-04T20:52:27.583Z,34.10
2023-03-04T20:57:32.202Z,23.00
2023-03-04T21:00:01.549Z,22.40
2023-03-04T21:02:31.691Z,30.80
2023-03-04T21:05:02.388Z,34.40
2023-03-04T21:07:38.761Z,28.60
2023-03-04T21:10:08.314Z,30.00
2023-03-04T21:12:38.346Z,29.90
2023-03-04T21:15:10.365Z,29.80
2023-03-04T21:17:39.474Z,27.30
2023-03-04T21:20:11.217Z,27.60
2023-03-04T21:25:10.183Z,27.60
2023-03-04T21:27:43.071Z,29.30
2023-03-04T21:30:13.741Z,28.30
2023-03-04T21:32:43.324Z,25.20
2023-03-04T21:35:17.097Z,23.20
2023-03-04T21:37:57.627Z,24.00
2023-03-04T21:40:27.322Z,28.90
2023-03-04T21:42:56.431Z,24.50
2023-03-04T21:45:25.673Z,24.50
2023-03-04T21:47:58.579Z,21.80
2023-03-04T21:50:27.995Z,24.20
2023-03-04T21:52:58.942Z,23.50
2023-03-04T21:55:28.398Z,24.90
2023-03-04T21:57:57.458Z,23.00
2023-03-04T22:00:28.664Z,22.50
2023-03-04T22:02:57.749Z,24.40
2023-03-04T22:05:27.147Z,24.20
2023-03-04T22:08:04.148Z,28.00
2023-03-04T22:10:38.235Z,23.80
2023-03-04T22:13:10.767Z,25.50
2023-03-04T22:15:42.769Z,24.70
2023-03-04T22:18:14.638Z,23.30
2023-03-04T22:20:45.857Z,30.00
2023-03-04T22:23:15.452Z,28.30
2023-03-04T22:25:45.454Z,28.60
2023-03-04T22:28:15.130Z,25.50
2023-03-04T22:30:45.045Z,31.10
2023-03-04T22:33:14.101Z,24.70
2023-03-04T22:35:46.262Z,26.80
2023-03-04T22:38:15.518Z,25.40
2023-03-04T22:40:46.052Z,27.30
2023-03-04T22:43:18.040Z,25.90
2023-03-04T22:45:48.197Z,26.60
2023-03-04T22:48:19.486Z,25.70
2023-03-04T22:50:49.887Z,30.00
2023-03-04T22:53:19.715Z,30.40
2023-03-04T22:55:48.986Z,25.80
2023-03-04T22:58:18.980Z,30.50
2023-03-04T23:00:48.195Z,28.00
2023-03-04T23:03:17.571Z,27.30
2023-03-04T23:05:47.438Z,26.20
2023-03-04T23:08:17.217Z,25.00
2023-03-04T23:10:47.057Z,35.20
2023-03-04T23:13:16.223Z,30.40
2023-03-04T23:15:45.259Z,32.60
2023-03-04T23:18:15.965Z,29.30
2023-03-04T23:20:45.545Z,23.90
2023-03-04T23:23:18.368Z,28.30
2023-03-04T23:25:52.278Z,26.20
2023-03-04T23:28:21.686Z,24.60
2023-03-04T23:30:51.781Z,30.30
2023-03-04T23:33:21.332Z,26.70
2023-03-04T23:35:50.650Z,25.10
2023-03-04T23:38:20.446Z,23.70
2023-03-04T23:40:52.960Z,22.80
2023-03-04T23:45:52.665Z,21.70
2023-03-04T23:48:21.948Z,27.20
2023-03-04T23:50:55.810Z,24.90
2023-03-04T23:53:26.079Z,27.10
2023-03-04T23:55:58.745Z,26.10
2023-03-04T23:58:27.991Z,23.40
